This is the latest recevied weather packets stored in our database for station/object KB1MS. If no packets are shown the sender has not sent any weather packets the latest 10 day(s).
| Time | Temp. | Humidity | Pressure | Rain* | Wind** | Luminosity | Snow |
|---|---|---|---|---|---|---|---|
| 1788565460 | 23.33° C | 62% | 1008.6 hPa | 0 mm | - | 0 W/m² | - |
| 1788565156 | 23.33° C | 61% | 1008.7 hPa | 0 mm | - | 0 W/m² | - |
| 1788564851 | 23.33° C | 61% | 1008.5 hPa | 0 mm | - | 0 W/m² | - |
| 1788564548 | 23.33° C | 61% | 1008.5 hPa | 0 mm | - | 0 W/m² | - |
| 1788564244 | 23.89° C | 60% | 1008.5 hPa | 0 mm | - | 1 W/m² | - |
| 1788563940 | 23.89° C | 60% | 1008.5 hPa | 0 mm | - | 2 W/m² | - |
| 1788563634 | 23.89° C | 60% | 1008.3 hPa | 0 mm | - | 3 W/m² | - |
| 1788563329 | 23.89° C | 59% | 1008.5 hPa | 0 mm | - | 7 W/m² | - |
| 1788563028 | 23.89° C | 59% | 1008.4 hPa | 0 mm | - | 11 W/m² | - |
| 1788562723 | 24.44° C | 60% | 1008.2 hPa | 0 mm | - | 14 W/m² | - |
| 1788562422 | 24.44° C | 58% | 1008.3 hPa | 0 mm | - | 18 W/m² | - |
| 1788562124 | 25° C | 57% | 1008.1 hPa | 0 mm | - | 22 W/m² | - |
| 1788561817 | 25° C | 56% | 1008.3 hPa | 0 mm | - | 27 W/m² | - |
| 1788561511 | 25.56° C | 55% | 1008.2 hPa | 0 mm | - | 29 W/m² | - |
| 1788561211 | 25.56° C | 54% | 1008.1 hPa | 0 mm | - | 34 W/m² | - |
| 1788560907 | 25.56° C | 55% | 1008 hPa | 0 mm | - | 30 W/m² | - |
| 1788560607 | 25.56° C | 53% | 1008.2 hPa | 0 mm | - | 39 W/m² | - |
| 1788560307 | 25.56° C | 55% | 1008.1 hPa | 0 mm | - | 43 W/m² | - |
| 1788560007 | 25.56° C | 53% | 1008 hPa | 0 mm | - | 43 W/m² | - |
| 1788559703 | 26.11° C | 53% | 1008.2 hPa | 0 mm | - | 46 W/m² | - |
| 1788559402 | 26.67° C | 50% | 1007.8 hPa | 0 mm | - | 52 W/m² | - |
| 1788559097 | 26.67° C | 50% | 1007.8 hPa | 0 mm | - | 75 W/m² | - |
| 1788558793 | 27.22° C | 48% | 1007.7 hPa | 0 mm | - | 129 W/m² | - |
| 1788558489 | 27.22° C | 50% | 1008.1 hPa | 0 mm | - | 86 W/m² | - |
| 1788558184 | 27.78° C | 48% | 1007.8 hPa | 0 mm | - | 141 W/m² | - |
* Rain latest hour (hover to see other rain measurements)
** Current wind speed in m/s (hover to see current wind gust speed)